CDT,Max TemperatureF,Mean TemperatureF,Min TemperatureF,Max Dew PointF,MeanDew PointF,Min DewpointF,Max Humidity, Mean Humidity, Min Humidity, Max Sea Level PressureIn, Mean Sea Level PressureIn, Min Sea Level PressureIn, Max VisibilityMiles, Mean VisibilityMiles, Min VisibilityMiles, Max Wind SpeedMPH, Mean Wind SpeedMPH, Max Gust SpeedMPH,PrecipitationIn, CloudCover, Events, WindDirDegrees
2013-7-1,72,66,62,65,63,61,100,91,75,29.94,29.90,29.84,10,8,2,14,8,18,0.46,8,Rain,345
2013-7-2,68,64,62,64,63,61,100,94,90,30.04,29.94,29.88,10,6,1,12,8,20,0.69,8,Rain,321
2013-7-3,81,70,62,63,61,57,100,80,47,30.12,30.07,30.02,10,7,3,7,3,,0.00,5,Rain,242
2013-7-4,84,70,57,67,61,57,100,83,47,30.10,30.06,30.00,10,5,0,8,1,,0.01,0,Fog,106
2013-7-5,80,71,62,68,64,61,100,91,58,30.10,30.07,30.03,10,5,0,10,1,,0.00,4,Fog,105
2013-7-6,84,68,66,68,65,61,94,89,83,30.08,30.04,30.03,10,10,10,9,4,,0.00,2,Thunderstorm,139
2013-7-7,64,63,62,62,61,60,97,93,84,30.05,30.04,30.03,10,9,6,5,2,,0.00,0,,177
2013-7-8,89,80,70,73,71,67,93,72,52,30.14,30.08,30.04,10,10,8,12,4,,0.00,2,,198
2013-7-9,91,83,75,75,73,70,85,72,55,30.07,30.03,29.96,10,10,10,13,7,18,0.00,1,,198
2013-7-10,86,80,73,74,72,70,93,80,65,29.99,29.95,29.91,10,10,8,9,6,,0.00,4,Rain,238
2013-7-11,84,75,63,72,63,56,94,68,40,30.04,30.00,29.95,10,9,2,14,6,17,0.01,1,,6
2013-7-12,84,72,61,62,59,56,93,66,38,30.11,30.06,30.02,10,10,8,10,5,,0.01,0,,41
2013-7-13,86,72,59,63,60,57,100,75,43,30.08,30.05,30.01,10,7,0,9,2,,0.00,1,Fog,50
2013-7-14,89,74,62,72,67,61,97,79,55,30.14,30.10,30.04,10,9,4,13,4,,0.02,2,Rain,101
2013-7-15,87,78,69,73,71,68,100,84,61,30.24,30.18,30.14,10,6,0,12,2,,0.01,3,Fog-Rain,138
2013-7-16,91,80,68,75,70,66,100,83,46,30.30,30.26,30.23,10,6,0,8,1,,0.01,2,Fog,112
2013-7-17,93,81,69,77,71,67,100,81,44,30.33,30.28,30.19,10,6,0,6,1,,0.00,0,Fog,350
2013-7-18,93,81,71,76,72,70,100,83,48,30.21,30.15,30.05,10,5,0,9,1,,0.00,1,Fog,166
2013-7-19,90,80,70,72,71,69,100,76,50,30.05,29.99,29.91,10,7,1,13,5,,0.00,0,,201
2013-7-20,91,80,69,74,70,68,100,79,55,29.97,29.91,29.80,10,8,1,14,6,21,1.08,3,Rain-Thunderstorm,187
2013-7-21,86,77,70,73,71,69,97,85,65,29.96,29.91,29.86,10,8,3,10,2,47,0.13,3,Rain-Thunderstorm,186
2013-7-22,88,78,69,75,71,68,100,84,59,29.88,29.85,29.80,10,9,7,10,6,,0.01,4,,237
2013-7-23,90,81,71,75,71,63,94,78,57,29.88,29.83,29.76,10,10,10,26,6,37,0.00,2,Thunderstorm,226
2013-7-24,81,74,64,67,60,56,93,67,43,30.02,29.95,29.86,10,10,8,10,4,,0.00,2,,13
2013-7-25,81,68,57,61,57,55,93,69,42,30.11,30.07,30.02,10,10,10,12,4,17,0.00,1,,8
2013-7-26,77,67,57,67,61,56,100,86,60,30.09,30.05,29.98,10,7,0,7,1,,0.06,3,Fog-Rain,212
2013-7-27,79,70,57,67,62,53,94,76,43,30.00,29.97,29.94,10,9,4,14,7,18,0.07,5,Rain,306
2013-7-28,78,64,51,59,54,50,100,80,43,30.07,30.03,29.99,10,6,0,13,2,,0.00,0,Fog,223
2013-7-29,77,67,57,68,62,57,97,79,60,30.17,30.13,30.06,10,10,10,8,3,,0.00,3,,187
2013-7-30,73,69,66,70,67,61,96,91,73,30.15,30.08,30.02,10,7,1,9,5,,0.98,7,Rain,148
2013-7-31,86,76,69,73,70,68,97,86,63,30.04,30.01,29.96,10,7,0,10,2,,0.00,6,Fog-Rain,354